sensor_id;sensor_type;location;lat;lon;timestamp;P1;durP1;ratioP1;P2;durP2;ratioP2
15843;SDS011;50807;52.436;13.346;2023-06-26T00:00:14;7.70;;;7.00;;
15843;SDS011;50807;52.436;13.346;2023-06-26T00:00:46;7.03;;;6.47;;
15843;SDS011;50807;52.436;13.346;2023-06-26T00:01:17;7.27;;;6.57;;
15843;SDS011;50807;52.436;13.346;2023-06-26T00:01:50;7.50;;;6.90;;
15843;SDS011;50807;52.436;13.346;2023-06-26T00:02:22;7.13;;;6.43;;
15843;SDS011;50807;52.436;13.346;2023-06-26T00:02:53;6.40;;;5.90;;
15843;SDS011;50807;52.436;13.346;2023-06-26T00:03:24;7.40;;;6.70;;
15843;SDS011;50807;52.436;13.346;2023-06-26T00:03:56;6.87;;;6.37;;
15843;SDS011;50807;52.436;13.346;2023-06-26T00:04:28;7.13;;;6.53;;
15843;SDS011;50807;52.436;13.346;2023-06-26T00:04:59;6.87;;;6.37;;
15843;SDS011;50807;52.436;13.346;2023-06-26T00:05:32;7.43;;;6.83;;
15843;SDS011;50807;52.436;13.346;2023-06-26T00:06:04;7.37;;;6.77;;
15843;SDS011;50807;52.436;13.346;2023-06-26T00:06:35;7.37;;;6.77;;
15843;SDS011;50807;52.436;13.346;2023-06-26T00:07:08;7.47;;;6.83;;
15843;SDS011;50807;52.436;13.346;2023-06-26T00:07:39;7.20;;;6.60;;
15843;SDS011;50807;52.436;13.346;2023-06-26T00:08:10;7.07;;;6.47;;
15843;SDS011;50807;52.436;13.346;2023-06-26T00:08:41;6.67;;;6.10;;
15843;SDS011;50807;52.436;13.346;2023-06-26T00:09:13;6.90;;;6.40;;
15843;SDS011;50807;52.436;13.346;2023-06-26T00:09:44;6.67;;;6.07;;
15843;SDS011;50807;52.436;13.346;2023-06-26T00:10:17;6.50;;;6.00;;
15843;SDS011;50807;52.436;13.346;2023-06-26T00:10:47;7.00;;;6.40;;
15843;SDS011;50807;52.436;13.346;2023-06-26T00:11:21;6.40;;;5.90;;
15843;SDS011;50807;52.436;13.346;2023-06-26T00:11:52;7.33;;;6.73;;
15843;SDS011;50807;52.436;13.346;2023-06-26T00:12:24;6.73;;;6.23;;
15843;SDS011;50807;52.436;13.346;2023-06-26T00:12:55;6.63;;;6.13;;
15843;SDS011;50807;52.436;13.346;2023-06-26T00:13:25;7.77;;;7.07;;
15843;SDS011;50807;52.436;13.346;2023-06-26T00:13:57;7.53;;;6.73;;
15843;SDS011;50807;52.436;13.346;2023-06-26T00:14:30;7.33;;;6.63;;
15843;SDS011;50807;52.436;13.346;2023-06-26T00:15:00;6.87;;;6.20;;
15843;SDS011;50807;52.436;13.346;2023-06-26T00:15:32;6.80;;;6.20;;
15843;SDS011;50807;52.436;13.346;2023-06-26T00:16:03;6.97;;;6.37;;
15843;SDS011;50807;52.436;13.346;2023-06-26T00:16:34;7.40;;;6.80;;
15843;SDS011;50807;52.436;13.346;2023-06-26T00:17:07;7.10;;;6.50;;
15843;SDS011;50807;52.436;13.346;2023-06-26T00:17:37;7.20;;;6.60;;
15843;SDS011;50807;52.436;13.346;2023-06-26T00:18:08;7.13;;;6.53;;
15843;SDS011;50807;52.436;13.346;2023-06-26T00:18:40;7.60;;;7.00;;
15843;SDS011;50807;52.436;13.346;2023-06-26T00:19:11;6.60;;;6.07;;
15843;SDS011;50807;52.436;13.346;2023-06-26T00:19:43;7.23;;;6.63;;
15843;SDS011;50807;52.436;13.346;2023-06-26T00:20:14;6.50;;;6.00;;
15843;SDS011;50807;52.436;13.346;2023-06-26T00:20:47;6.47;;;5.97;;
15843;SDS011;50807;52.436;13.346;2023-06-26T00:21:19;7.07;;;6.47;;
15843;SDS011;50807;52.436;13.346;2023-06-26T00:21:50;6.63;;;6.03;;
15843;SDS011;50807;52.436;13.346;2023-06-26T00:22:21;7.23;;;6.63;;
15843;SDS011;50807;52.436;13.346;2023-06-26T00:22:53;7.07;;;6.47;;
15843;SDS011;50807;52.436;13.346;2023-06-26T00:23:26;7.23;;;6.57;;
15843;SDS011;50807;52.436;13.346;2023-06-26T00:23:57;7.00;;;6.40;;
15843;SDS011;50807;52.436;13.346;2023-06-26T00:24:29;6.80;;;6.20;;
15843;SDS011;50807;52.436;13.346;2023-06-26T00:24:59;7.33;;;6.73;;
15843;SDS011;50807;52.436;13.346;2023-06-26T00:25:32;7.07;;;6.47;;
15843;SDS011;50807;52.436;13.346;2023-06-26T00:26:04;7.30;;;6.60;;
15843;SDS011;50807;52.436;13.346;2023-06-26T00:26:34;6.80;;;6.10;;
15843;SDS011;50807;52.436;13.346;2023-06-26T00:27:05;6.47;;;5.97;;
15843;SDS011;50807;52.436;13.346;2023-06-26T00:27:37;6.60;;;6.00;;
15843;SDS011;50807;52.436;13.346;2023-06-26T00:28:08;6.83;;;6.23;;
15843;SDS011;50807;52.436;13.346;2023-06-26T00:28:39;6.97;;;6.37;;
15843;SDS011;50807;52.436;13.346;2023-06-26T00:29:11;7.47;;;6.77;;
15843;SDS011;50807;52.436;13.346;2023-06-26T00:29:42;6.83;;;6.30;;
15843;SDS011;50807;52.436;13.346;2023-06-26T00:30:12;6.83;;;6.23;;
15843;SDS011;50807;52.436;13.346;2023-06-26T00:30:43;8.20;;;7.50;;
15843;SDS011;50807;52.436;13.346;2023-06-26T00:31:15;7.23;;;6.63;;
15843;SDS011;50807;52.436;13.346;2023-06-26T00:31:46;6.50;;;6.00;;
15843;SDS011;50807;52.436;13.346;2023-06-26T00:32:17;7.30;;;6.70;;
15843;SDS011;50807;52.436;13.346;2023-06-26T00:32:48;6.63;;;6.13;;
15843;SDS011;50807;52.436;13.346;2023-06-26T00:33:19;7.27;;;6.57;;
15843;SDS011;50807;52.436;13.346;2023-06-26T00:33:50;7.37;;;6.77;;
15843;SDS011;50807;52.436;13.346;2023-06-26T00:34:22;6.63;;;6.13;;
15843;SDS011;50807;52.436;13.346;2023-06-26T00:34:52;6.53;;;5.93;;
15843;SDS011;50807;52.436;13.346;2023-06-26T00:35:23;6.93;;;6.33;;
15843;SDS011;50807;52.436;13.346;2023-06-26T00:35:55;7.07;;;6.47;;
15843;SDS011;50807;52.436;13.346;2023-06-26T00:36:26;6.83;;;6.13;;
15843;SDS011;50807;52.436;13.346;2023-06-26T00:36:56;7.17;;;6.57;;
15843;SDS011;50807;52.436;13.346;2023-06-26T00:37:28;7.30;;;6.57;;
15843;SDS011;50807;52.436;13.346;2023-06-26T00:37:59;6.90;;;6.33;;
15843;SDS011;50807;52.436;13.346;2023-06-26T00:38:30;7.67;;;6.83;;
15843;SDS011;50807;52.436;13.346;2023-06-26T00:39:01;7.03;;;6.43;;
15843;SDS011;50807;52.436;13.346;2023-06-26T00:39:33;6.70;;;6.20;;
15843;SDS011;50807;52.436;13.346;2023-06-26T00:40:05;7.03;;;6.37;;
15843;SDS011;50807;52.436;13.346;2023-06-26T00:40:38;6.63;;;6.03;;
15843;SDS011;50807;52.436;13.346;2023-06-26T00:41:09;7.23;;;6.53;;
15843;SDS011;50807;52.436;13.346;2023-06-26T00:41:42;6.90;;;6.30;;
15843;SDS011;50807;52.436;13.346;2023-06-26T00:42:13;7.30;;;6.70;;
15843;SDS011;50807;52.436;13.346;2023-06-26T00:42:44;6.73;;;6.17;;
15843;SDS011;50807;52.436;13.346;2023-06-26T00:43:15;6.90;;;6.30;;
15843;SDS011;50807;52.436;13.346;2023-06-26T00:43:46;6.77;;;6.20;;
15843;SDS011;50807;52.436;13.346;2023-06-26T00:44:17;7.20;;;6.60;;
15843;SDS011;50807;52.436;13.346;2023-06-26T00:44:48;7.07;;;6.47;;
15843;SDS011;50807;52.436;13.346;2023-06-26T00:45:19;7.13;;;6.53;;
15843;SDS011;50807;52.436;13.346;2023-06-26T00:45:50;7.10;;;6.50;;
15843;SDS011;50807;52.436;13.346;2023-06-26T00:46:21;6.50;;;6.00;;
15843;SDS011;50807;52.436;13.346;2023-06-26T00:46:54;6.80;;;6.20;;
15843;SDS011;50807;52.436;13.346;2023-06-26T00:47:25;6.77;;;6.17;;
15843;SDS011;50807;52.436;13.346;2023-06-26T00:47:57;7.33;;;6.63;;
15843;SDS011;50807;52.436;13.346;2023-06-26T00:48:28;6.93;;;6.37;;
15843;SDS011;50807;52.436;13.346;2023-06-26T00:49:00;6.43;;;5.93;;
15843;SDS011;50807;52.436;13.346;2023-06-26T00:49:33;7.40;;;6.73;;
15843;SDS011;50807;52.436;13.346;2023-06-26T00:50:05;6.50;;;6.00;;
15843;SDS011;50807;52.436;13.346;2023-06-26T00:50:37;7.07;;;6.43;;
15843;SDS011;50807;52.436;13.346;2023-06-26T00:51:08;7.07;;;6.47;;
15843;SDS011;50807;52.436;13.346;2023-06-26T00:51:40;6.73;;;6.23;;
15843;SDS011;50807;52.436;13.346;2023-06-26T00:52:12;7.13;;;6.47;;
15843;SDS011;50807;52.436;13.346;2023-06-26T00:52:43;6.47;;;5.97;;
15843;SDS011;50807;52.436;13.346;2023-06-26T00:53:15;7.10;;;6.50;;
15843;SDS011;50807;52.436;13.346;2023-06-26T00:53:46;6.47;;;5.97;;
15843;SDS011;50807;52.436;13.346;2023-06-26T00:54:18;7.17;;;6.57;;
15843;SDS011;50807;52.436;13.346;2023-06-26T00:54:52;7.20;;;6.60;;
15843;SDS011;50807;52.436;13.346;2023-06-26T00:55:23;7.10;;;6.50;;
15843;SDS011;50807;52.436;13.346;2023-06-26T00:55:55;7.03;;;6.43;;
15843;SDS011;50807;52.436;13.346;2023-06-26T00:56:26;7.53;;;6.93;;
15843;SDS011;50807;52.436;13.346;2023-06-26T00:56:59;6.57;;;5.97;;
15843;SDS011;50807;52.436;13.346;2023-06-26T00:57:30;6.97;;;6.37;;
15843;SDS011;50807;52.436;13.346;2023-06-26T00:58:01;6.43;;;5.93;;
15843;SDS011;50807;52.436;13.346;2023-06-26T00:58:32;7.40;;;6.50;;
15843;SDS011;50807;52.436;13.346;2023-06-26T00:59:03;7.20;;;6.60;;
15843;SDS011;50807;52.436;13.346;2023-06-26T00:59:34;7.03;;;6.43;;
15843;SDS011;50807;52.436;13.346;2023-06-26T01:00:06;6.63;;;6.03;;
15843;SDS011;50807;52.436;13.346;2023-06-26T01:00:40;6.97;;;6.47;;
15843;SDS011;50807;52.436;13.346;2023-06-26T01:01:13;7.37;;;6.70;;
15843;SDS011;50807;52.436;13.346;2023-06-26T01:01:47;6.70;;;6.20;;
15843;SDS011;50807;52.436;13.346;2023-06-26T01:02:18;7.07;;;6.47;;
15843;SDS011;50807;52.436;13.346;2023-06-26T01:02:50;6.50;;;5.90;;
15843;SDS011;50807;52.436;13.346;2023-06-26T01:03:22;7.17;;;6.57;;
15843;SDS011;50807;52.436;13.346;2023-06-26T01:03:54;7.43;;;6.83;;
15843;SDS011;50807;52.436;13.346;2023-06-26T01:04:26;7.37;;;6.57;;
15843;SDS011;50807;52.436;13.346;2023-06-26T01:05:02;7.23;;;6.63;;
15843;SDS011;50807;52.436;13.346;2023-06-26T01:05:36;6.63;;;6.03;;
15843;SDS011;50807;52.436;13.346;2023-06-26T01:06:08;7.07;;;6.40;;
15843;SDS011;50807;52.436;13.346;2023-06-26T01:06:43;6.70;;;6.10;;
15843;SDS011;50807;52.436;13.346;2023-06-26T01:07:18;6.63;;;6.13;;
15843;SDS011;50807;52.436;13.346;2023-06-26T01:07:51;7.00;;;6.40;;
15843;SDS011;50807;52.436;13.346;2023-06-26T01:08:23;6.70;;;6.10;;
15843;SDS011;50807;52.436;13.346;2023-06-26T01:08:55;6.60;;;6.07;;
15843;SDS011;50807;52.436;13.346;2023-06-26T01:09:27;7.67;;;6.87;;
15843;SDS011;50807;52.436;13.346;2023-06-26T01:10:00;6.47;;;5.97;;
15843;SDS011;50807;52.436;13.346;2023-06-26T01:10:33;6.73;;;6.13;;
15843;SDS011;50807;52.436;13.346;2023-06-26T01:11:05;6.20;;;5.73;;
15843;SDS011;50807;52.436;13.346;2023-06-26T01:11:37;7.37;;;6.70;;
15843;SDS011;50807;52.436;13.346;2023-06-26T01:12:08;6.90;;;6.30;;
15843;SDS011;50807;52.436;13.346;2023-06-26T01:12:38;7.90;;;7.10;;
15843;SDS011;50807;52.436;13.346;2023-06-26T01:13:09;7.00;;;6.40;;
15843;SDS011;50807;52.436;13.346;2023-06-26T01:13:42;6.60;;;6.07;;
15843;SDS011;50807;52.436;13.346;2023-06-26T01:14:14;6.17;;;5.67;;
15843;SDS011;50807;52.436;13.346;2023-06-26T01:14:45;6.97;;;6.30;;
15843;SDS011;50807;52.436;13.346;2023-06-26T01:15:16;6.57;;;6.03;;
15843;SDS011;50807;52.436;13.346;2023-06-26T01:15:48;6.40;;;5.90;;
15843;SDS011;50807;52.436;13.346;2023-06-26T01:16:19;6.73;;;6.13;;
15843;SDS011;50807;52.436;13.346;2023-06-26T01:16:51;6.43;;;5.93;;
15843;SDS011;50807;52.436;13.346;2023-06-26T01:17:27;6.00;;;5.53;;
15843;SDS011;50807;52.436;13.346;2023-06-26T01:18:01;7.00;;;6.30;;
15843;SDS011;50807;52.436;13.346;2023-06-26T01:18:33;6.80;;;6.20;;
15843;SDS011;50807;52.436;13.346;2023-06-26T01:19:09;7.23;;;6.63;;
15843;SDS011;50807;52.436;13.346;2023-06-26T01:19:54;6.90;;;6.30;;
15843;SDS011;50807;52.436;13.346;2023-06-26T01:20:25;6.53;;;6.03;;
15843;SDS011;50807;52.436;13.346;2023-06-26T01:20:57;6.90;;;6.40;;
15843;SDS011;50807;52.436;13.346;2023-06-26T01:21:31;6.93;;;6.33;;
15843;SDS011;50807;52.436;13.346;2023-06-26T01:22:12;6.30;;;5.80;;
15843;SDS011;50807;52.436;13.346;2023-06-26T01:23:05;6.80;;;6.20;;
15843;SDS011;50807;52.436;13.346;2023-06-26T01:23:58;7.40;;;6.63;;
15843;SDS011;50807;52.436;13.346;2023-06-26T01:24:42;6.37;;;5.83;;
15843;SDS011;50807;52.436;13.346;2023-06-26T01:25:32;6.83;;;6.23;;
15843;SDS011;50807;52.436;13.346;2023-06-26T01:26:17;6.90;;;6.30;;
15843;SDS011;50807;52.436;13.346;2023-06-26T01:26:50;6.50;;;6.00;;
15843;SDS011;50807;52.436;13.346;2023-06-26T01:27:22;6.37;;;5.77;;
15843;SDS011;50807;52.436;13.346;2023-06-26T01:27:55;6.33;;;5.83;;
15843;SDS011;50807;52.436;13.346;2023-06-26T01:28:27;6.53;;;5.93;;
15843;SDS011;50807;52.436;13.346;2023-06-26T01:29:00;6.57;;;6.07;;
15843;SDS011;50807;52.436;13.346;2023-06-26T01:29:35;6.40;;;5.90;;
15843;SDS011;50807;52.436;13.346;2023-06-26T01:30:08;6.90;;;6.40;;
15843;SDS011;50807;52.436;13.346;2023-06-26T01:30:41;6.53;;;6.03;;
15843;SDS011;50807;52.436;13.346;2023-06-26T01:31:15;6.97;;;6.37;;
15843;SDS011;50807;52.436;13.346;2023-06-26T01:31:47;6.30;;;5.80;;
15843;SDS011;50807;52.436;13.346;2023-06-26T01:32:19;7.10;;;6.50;;
15843;SDS011;50807;52.436;13.346;2023-06-26T01:32:52;6.57;;;6.07;;
15843;SDS011;50807;52.436;13.346;2023-06-26T01:33:23;6.87;;;6.33;;
15843;SDS011;50807;52.436;13.346;2023-06-26T01:33:54;7.03;;;6.43;;
15843;SDS011;50807;52.436;13.346;2023-06-26T01:34:27;6.97;;;6.37;;
15843;SDS011;50807;52.436;13.346;2023-06-26T01:34:59;6.83;;;6.23;;
15843;SDS011;50807;52.436;13.346;2023-06-26T01:35:31;6.43;;;5.93;;
15843;SDS011;50807;52.436;13.346;2023-06-26T01:36:04;6.50;;;6.00;;
15843;SDS011;50807;52.436;13.346;2023-06-26T01:36:35;7.40;;;6.70;;
15843;SDS011;50807;52.436;13.346;2023-06-26T01:37:07;6.77;;;6.23;;
15843;SDS011;50807;52.436;13.346;2023-06-26T01:37:38;6.80;;;6.20;;
15843;SDS011;50807;52.436;13.346;2023-06-26T01:38:13;7.33;;;6.73;;
15843;SDS011;50807;52.436;13.346;2023-06-26T01:38:46;7.03;;;6.50;;
15843;SDS011;50807;52.436;13.346;2023-06-26T01:39:18;6.63;;;6.13;;
15843;SDS011;50807;52.436;13.346;2023-06-26T01:39:49;6.67;;;6.13;;
15843;SDS011;50807;52.436;13.346;2023-06-26T01:40:20;7.30;;;6.67;;
15843;SDS011;50807;52.436;13.346;2023-06-26T01:40:52;6.80;;;6.20;;
15843;SDS011;50807;52.436;13.346;2023-06-26T01:41:25;6.77;;;6.23;;
15843;SDS011;50807;52.436;13.346;2023-06-26T01:41:56;7.07;;;6.47;;
15843;SDS011;50807;52.436;13.346;2023-06-26T01:42:28;6.70;;;6.00;;
15843;SDS011;50807;52.436;13.346;2023-06-26T01:42:58;6.97;;;6.40;;
15843;SDS011;50807;52.436;13.346;2023-06-26T01:43:31;6.77;;;6.27;;
15843;SDS011;50807;52.436;13.346;2023-06-26T01:44:14;6.63;;;6.10;;
15843;SDS011;50807;52.436;13.346;2023-06-26T01:44:56;6.93;;;6.33;;
15843;SDS011;50807;52.436;13.346;2023-06-26T01:45:27;7.10;;;6.50;;
15843;SDS011;50807;52.436;13.346;2023-06-26T01:46:04;6.83;;;6.23;;
15843;SDS011;50807;52.436;13.346;2023-06-26T01:46:43;7.10;;;6.50;;
15843;SDS011;50807;52.436;13.346;2023-06-26T01:47:26;7.73;;;7.03;;
15843;SDS011;50807;52.436;13.346;2023-06-26T01:48:01;6.57;;;6.07;;
15843;SDS011;50807;52.436;13.346;2023-06-26T01:48:38;7.20;;;6.60;;
15843;SDS011;50807;52.436;13.346;2023-06-26T01:49:19;6.60;;;6.10;;
15843;SDS011;50807;52.436;13.346;2023-06-26T01:50:02;6.53;;;6.03;;
15843;SDS011;50807;52.436;13.346;2023-06-26T01:50:40;6.40;;;5.90;;
15843;SDS011;50807;52.436;13.346;2023-06-26T01:51:14;6.30;;;5.80;;
15843;SDS011;50807;52.436;13.346;2023-06-26T01:51:51;6.33;;;5.83;;
15843;SDS011;50807;52.436;13.346;2023-06-26T01:52:35;7.50;;;6.80;;
15843;SDS011;50807;52.436;13.346;2023-06-26T01:53:12;6.87;;;6.27;;
15843;SDS011;50807;52.436;13.346;2023-06-26T01:53:49;6.90;;;6.30;;
15843;SDS011;50807;52.436;13.346;2023-06-26T01:54:26;7.13;;;6.53;;
15843;SDS011;50807;52.436;13.346;2023-06-26T01:55:09;6.63;;;6.10;;
15843;SDS011;50807;52.436;13.346;2023-06-26T01:55:47;6.97;;;6.37;;
15843;SDS011;50807;52.436;13.346;2023-06-26T01:56:27;7.00;;;6.40;;
15843;SDS011;50807;52.436;13.346;2023-06-26T01:56:59;6.77;;;6.17;;
15843;SDS011;50807;52.436;13.346;2023-06-26T01:57:31;7.30;;;6.70;;
15843;SDS011;50807;52.436;13.346;2023-06-26T01:58:06;7.00;;;6.40;;
15843;SDS011;50807;52.436;13.346;2023-06-26T01:58:38;6.63;;;6.13;;
15843;SDS011;50807;52.436;13.346;2023-06-26T01:59:15;6.53;;;6.03;;
15843;SDS011;50807;52.436;13.346;2023-06-26T01:59:50;7.20;;;6.60;;
15843;SDS011;50807;52.436;13.346;2023-06-26T02:00:22;6.37;;;5.87;;
15843;SDS011;50807;52.436;13.346;2023-06-26T02:00:56;7.07;;;6.47;;
15843;SDS011;50807;52.436;13.346;2023-06-26T02:01:26;6.93;;;6.37;;
15843;SDS011;50807;52.436;13.346;2023-06-26T02:01:57;7.47;;;6.87;;
15843;SDS011;50807;52.436;13.346;2023-06-26T02:02:31;7.37;;;6.67;;
15843;SDS011;50807;52.436;13.346;2023-06-26T02:03:02;6.53;;;6.03;;
15843;SDS011;50807;52.436;13.346;2023-06-26T02:03:34;6.70;;;6.20;;
15843;SDS011;50807;52.436;13.346;2023-06-26T02:04:06;7.00;;;6.50;;
15843;SDS011;50807;52.436;13.346;2023-06-26T02:04:37;7.03;;;6.53;;
15843;SDS011;50807;52.436;13.346;2023-06-26T02:05:08;6.77;;;6.17;;
15843;SDS011;50807;52.436;13.346;2023-06-26T02:05:39;6.60;;;6.07;;
15843;SDS011;50807;52.436;13.346;2023-06-26T02:06:10;6.63;;;6.13;;
15843;SDS011;50807;52.436;13.346;2023-06-26T02:06:41;7.33;;;6.73;;
15843;SDS011;50807;52.436;13.346;2023-06-26T02:07:13;6.67;;;6.00;;
15843;SDS011;50807;52.436;13.346;2023-06-26T02:07:44;6.77;;;6.17;;
15843;SDS011;50807;52.436;13.346;2023-06-26T02:08:15;6.87;;;6.33;;
15843;SDS011;50807;52.436;13.346;2023-06-26T02:08:46;6.83;;;6.23;;
15843;SDS011;50807;52.436;13.346;2023-06-26T02:09:17;6.73;;;6.23;;
15843;SDS011;50807;52.436;13.346;2023-06-26T02:09:48;6.97;;;6.37;;
15843;SDS011;50807;52.436;13.346;2023-06-26T02:10:19;7.20;;;6.60;;
15843;SDS011;50807;52.436;13.346;2023-06-26T02:10:50;6.33;;;5.83;;
15843;SDS011;50807;52.436;13.346;2023-06-26T02:11:21;6.93;;;6.43;;
15843;SDS011;50807;52.436;13.346;2023-06-26T02:11:53;6.20;;;5.77;;
15843;SDS011;50807;52.436;13.346;2023-06-26T02:12:24;6.97;;;6.47;;
15843;SDS011;50807;52.436;13.346;2023-06-26T02:12:55;6.93;;;6.40;;
15843;SDS011;50807;52.436;13.346;2023-06-26T02:13:26;7.70;;;7.10;;
15843;SDS011;50807;52.436;13.346;2023-06-26T02:13:57;6.83;;;6.27;;
15843;SDS011;50807;52.436;13.346;2023-06-26T02:14:28;7.53;;;6.93;;
15843;SDS011;50807;52.436;13.346;2023-06-26T02:14:59;7.23;;;6.63;;
15843;SDS011;50807;52.436;13.346;2023-06-26T02:15:30;6.97;;;6.43;;
15843;SDS011;50807;52.436;13.346;2023-06-26T02:16:01;7.40;;;6.80;;
15843;SDS011;50807;52.436;13.346;2023-06-26T02:16:32;7.37;;;6.77;;
15843;SDS011;50807;52.436;13.346;2023-06-26T02:17:03;7.20;;;6.70;;
15843;SDS011;50807;52.436;13.346;2023-06-26T02:17:34;7.07;;;6.57;;
15843;SDS011;50807;52.436;13.346;2023-06-26T02:18:06;7.27;;;6.67;;
15843;SDS011;50807;52.436;13.346;2023-06-26T02:18:37;7.33;;;6.73;;
15843;SDS011;50807;52.436;13.346;2023-06-26T02:19:07;8.30;;;7.63;;
15843;SDS011;50807;52.436;13.346;2023-06-26T02:19:38;7.40;;;6.80;;
15843;SDS011;50807;52.436;13.346;2023-06-26T02:20:17;7.60;;;7.00;;
15843;SDS011;50807;52.436;13.346;2023-06-26T02:20:48;7.00;;;6.50;;
15843;SDS011;50807;52.436;13.346;2023-06-26T02:21:18;8.00;;;7.30;;
15843;SDS011;50807;52.436;13.346;2023-06-26T02:21:50;7.77;;;7.07;;
15843;SDS011;50807;52.436;13.346;2023-06-26T02:22:21;7.60;;;6.83;;
15843;SDS011;50807;52.436;13.346;2023-06-26T02:22:52;8.13;;;7.53;;
15843;SDS011;50807;52.436;13.346;2023-06-26T02:23:23;8.63;;;7.53;;
15843;SDS011;50807;52.436;13.346;2023-06-26T02:23:54;8.60;;;7.90;;
15843;SDS011;50807;52.436;13.346;2023-06-26T02:24:25;8.50;;;7.80;;
15843;SDS011;50807;52.436;13.346;2023-06-26T02:24:59;7.23;;;6.67;;
15843;SDS011;50807;52.436;13.346;2023-06-26T02:25:30;7.93;;;7.23;;
15843;SDS011;50807;52.436;13.346;2023-06-26T02:26:01;7.90;;;7.13;;
15843;SDS011;50807;52.436;13.346;2023-06-26T02:26:33;7.90;;;7.30;;
15843;SDS011;50807;52.436;13.346;2023-06-26T02:27:05;8.20;;;7.50;;
15843;SDS011;50807;52.436;13.346;2023-06-26T02:27:35;8.93;;;8.17;;
15843;SDS011;50807;52.436;13.346;2023-06-26T02:28:07;8.33;;;7.73;;
15843;SDS011;50807;52.436;13.346;2023-06-26T02:28:38;7.70;;;7.10;;
15843;SDS011;50807;52.436;13.346;2023-06-26T02:29:08;7.40;;;6.80;;
15843;SDS011;50807;52.436;13.346;2023-06-26T02:29:40;7.53;;;6.93;;
15843;SDS011;50807;52.436;13.346;2023-06-26T02:30:12;7.90;;;7.30;;
15843;SDS011;50807;52.436;13.346;2023-06-26T02:30:43;7.87;;;7.17;;
15843;SDS011;50807;52.436;13.346;2023-06-26T02:31:14;7.07;;;6.47;;
15843;SDS011;50807;52.436;13.346;2023-06-26T02:31:45;8.17;;;7.57;;
15843;SDS011;50807;52.436;13.346;2023-06-26T02:32:16;7.70;;;7.10;;
15843;SDS011;50807;52.436;13.346;2023-06-26T02:32:47;8.10;;;7.40;;
15843;SDS011;50807;52.436;13.346;2023-06-26T02:33:17;7.90;;;7.10;;
15843;SDS011;50807;52.436;13.346;2023-06-26T02:33:49;8.60;;;7.90;;
15843;SDS011;50807;52.436;13.346;2023-06-26T02:34:20;8.07;;;7.37;;
15843;SDS011;50807;52.436;13.346;2023-06-26T02:34:51;8.37;;;7.70;;
15843;SDS011;50807;52.436;13.346;2023-06-26T02:35:22;7.63;;;6.93;;
15843;SDS011;50807;52.436;13.346;2023-06-26T02:35:53;8.13;;;7.40;;
15843;SDS011;50807;52.436;13.346;2023-06-26T02:36:24;7.67;;;7.07;;
15843;SDS011;50807;52.436;13.346;2023-06-26T02:36:55;7.67;;;7.07;;
15843;SDS011;50807;52.436;13.346;2023-06-26T02:37:28;7.37;;;6.77;;
15843;SDS011;50807;52.436;13.346;2023-06-26T02:37:59;7.27;;;6.67;;
15843;SDS011;50807;52.436;13.346;2023-06-26T02:38:30;8.40;;;7.70;;
15843;SDS011;50807;52.436;13.346;2023-06-26T02:39:01;7.83;;;7.23;;
15843;SDS011;50807;52.436;13.346;2023-06-26T02:39:32;8.23;;;7.57;;
15843;SDS011;50807;52.436;13.346;2023-06-26T02:40:04;8.07;;;7.40;;
15843;SDS011;50807;52.436;13.346;2023-06-26T02:40:37;8.10;;;7.40;;
15843;SDS011;50807;52.436;13.346;2023-06-26T02:41:07;8.37;;;7.57;;
15843;SDS011;50807;52.436;13.346;2023-06-26T02:41:39;8.33;;;7.60;;
15843;SDS011;50807;52.436;13.346;2023-06-26T02:42:11;8.80;;;8.07;;
15843;SDS011;50807;52.436;13.346;2023-06-26T02:42:42;7.97;;;7.37;;
15843;SDS011;50807;52.436;13.346;2023-06-26T02:43:14;7.80;;;7.20;;
15843;SDS011;50807;52.436;13.346;2023-06-26T02:43:46;8.40;;;7.73;;
15843;SDS011;50807;52.436;13.346;2023-06-26T02:44:16;8.00;;;7.37;;
15843;SDS011;50807;52.436;13.346;2023-06-26T02:44:48;7.90;;;7.30;;
15843;SDS011;50807;52.436;13.346;2023-06-26T02:45:19;8.07;;;7.47;;
15843;SDS011;50807;52.436;13.346;2023-06-26T02:45:50;7.97;;;7.37;;
15843;SDS011;50807;52.436;13.346;2023-06-26T02:46:21;8.20;;;7.50;;
15843;SDS011;50807;52.436;13.346;2023-06-26T02:46:52;8.07;;;7.27;;
15843;SDS011;50807;52.436;13.346;2023-06-26T02:47:23;8.63;;;7.93;;
15843;SDS011;50807;52.436;13.346;2023-06-26T02:47:54;6.40;;;5.90;;
15843;SDS011;50807;52.436;13.346;2023-06-26T02:48:26;7.50;;;6.97;;
15843;SDS011;50807;52.436;13.346;2023-06-26T02:48:56;8.20;;;7.50;;
15843;SDS011;50807;52.436;13.346;2023-06-26T02:49:27;7.83;;;7.23;;
15843;SDS011;50807;52.436;13.346;2023-06-26T02:49:59;7.60;;;7.00;;
15843;SDS011;50807;52.436;13.346;2023-06-26T02:50:29;7.80;;;7.20;;
15843;SDS011;50807;52.436;13.346;2023-06-26T02:51:00;8.03;;;7.43;;
15843;SDS011;50807;52.436;13.346;2023-06-26T02:51:31;8.07;;;7.37;;
15843;SDS011;50807;52.436;13.346;2023-06-26T02:52:03;7.60;;;7.00;;
15843;SDS011;50807;52.436;13.346;2023-06-26T02:52:34;7.83;;;7.23;;
15843;SDS011;50807;52.436;13.346;2023-06-26T02:53:05;7.93;;;7.23;;
15843;SDS011;50807;52.436;13.346;2023-06-26T02:53:36;8.10;;;7.40;;
15843;SDS011;50807;52.436;13.346;2023-06-26T02:54:07;8.50;;;7.90;;
15843;SDS011;50807;52.436;13.346;2023-06-26T02:54:38;8.47;;;7.63;;
15843;SDS011;50807;52.436;13.346;2023-06-26T02:55:09;7.87;;;7.27;;
15843;SDS011;50807;52.436;13.346;2023-06-26T02:55:39;8.90;;;8.00;;
15843;SDS011;50807;52.436;13.346;2023-06-26T02:56:11;8.07;;;7.37;;
15843;SDS011;50807;52.436;13.346;2023-06-26T02:56:42;8.43;;;7.73;;
15843;SDS011;50807;52.436;13.346;2023-06-26T02:57:14;7.97;;;7.37;;
15843;SDS011;50807;52.436;13.346;2023-06-26T02:57:47;9.00;;;8.30;;
15843;SDS011;50807;52.436;13.346;2023-06-26T02:58:17;8.77;;;8.07;;
15843;SDS011;50807;52.436;13.346;2023-06-26T02:58:48;8.57;;;7.77;;
15843;SDS011;50807;52.436;13.346;2023-06-26T02:59:20;9.03;;;8.27;;
15843;SDS011;50807;52.436;13.346;2023-06-26T02:59:51;8.70;;;8.00;;
15843;SDS011;50807;52.436;13.346;2023-06-26T03:00:22;8.90;;;8.10;;
15843;SDS011;50807;52.436;13.346;2023-06-26T03:00:54;5.97;;;5.47;;
15843;SDS011;50807;52.436;13.346;2023-06-26T03:01:26;8.43;;;7.73;;
15843;SDS011;50807;52.436;13.346;2023-06-26T03:01:57;8.33;;;7.63;;
15843;SDS011;50807;52.436;13.346;2023-06-26T03:02:27;8.33;;;7.57;;
15843;SDS011;50807;52.436;13.346;2023-06-26T03:02:59;8.53;;;7.73;;
15843;SDS011;50807;52.436;13.346;2023-06-26T03:03:30;8.60;;;7.90;;
15843;SDS011;50807;52.436;13.346;2023-06-26T03:04:10;8.07;;;7.37;;
15843;SDS011;50807;52.436;13.346;2023-06-26T03:04:42;8.70;;;8.00;;
15843;SDS011;50807;52.436;13.346;2023-06-26T03:05:13;8.90;;;8.20;;
15843;SDS011;50807;52.436;13.346;2023-06-26T03:05:44;9.50;;;8.70;;
15843;SDS011;50807;52.436;13.346;2023-06-26T03:06:15;9.00;;;8.23;;
15843;SDS011;50807;52.436;13.346;2023-06-26T03:06:46;9.00;;;8.30;;
15843;SDS011;50807;52.436;13.346;2023-06-26T03:07:17;8.57;;;7.87;;
15843;SDS011;50807;52.436;13.346;2023-06-26T03:07:49;8.97;;;8.30;;
15843;SDS011;50807;52.436;13.346;2023-06-26T03:08:20;9.03;;;8.27;;
15843;SDS011;50807;52.436;13.346;2023-06-26T03:08:50;8.63;;;7.93;;
15843;SDS011;50807;52.436;13.346;2023-06-26T03:09:22;8.80;;;8.10;;
15843;SDS011;50807;52.436;13.346;2023-06-26T03:09:53;9.37;;;8.57;;
15843;SDS011;50807;52.436;13.346;2023-06-26T03:10:23;9.53;;;8.50;;
15843;SDS011;50807;52.436;13.346;2023-06-26T03:10:55;9.20;;;8.40;;
15843;SDS011;50807;52.436;13.346;2023-06-26T03:11:26;9.37;;;8.57;;
15843;SDS011;50807;52.436;13.346;2023-06-26T03:11:56;8.93;;;8.17;;